createdAt,value
2017-12-21T00:02:37.923Z,-0.39
2017-12-21T00:17:34.564Z,-0.49
2017-12-21T00:32:35.297Z,-0.66
2017-12-21T00:47:37.306Z,-0.76
2017-12-21T01:02:34.137Z,-0.74
2017-12-21T01:17:34.748Z,-0.73
2017-12-21T01:32:36.192Z,-0.64
2017-12-21T01:47:34.642Z,-0.65
2017-12-21T02:02:34.322Z,-0.64
2017-12-21T02:17:34.996Z,-0.55
2017-12-21T02:32:35.430Z,-0.44
2017-12-21T02:47:34.385Z,-0.41
2017-12-21T03:02:34.667Z,-0.37
2017-12-21T03:17:38.288Z,-0.34
2017-12-21T03:32:37.058Z,-0.30
2017-12-21T03:47:35.003Z,-0.27
2017-12-21T04:02:34.903Z,-0.24
2017-12-21T04:17:34.853Z,-0.25
2017-12-21T04:32:34.309Z,-0.17
2017-12-21T04:47:38.216Z,-0.14
2017-12-21T05:02:37.111Z,-0.11
2017-12-21T05:17:34.593Z,-0.04
2017-12-21T05:32:37.486Z,-0.02
2017-12-21T05:47:34.396Z,-0.04
2017-12-21T06:02:36.335Z,-0.07
2017-12-21T06:17:34.671Z,0.04
2017-12-21T06:32:36.713Z,0.16
2017-12-21T06:47:34.606Z,0.29
2017-12-21T07:02:37.393Z,0.42
2017-12-21T07:17:37.950Z,0.57
2017-12-21T07:32:34.792Z,0.76
2017-12-21T07:47:34.703Z,0.80
2017-12-21T08:02:34.634Z,0.95
2017-12-21T08:17:36.117Z,1.15
2017-12-21T08:32:36.474Z,1.64
2017-12-21T08:47:35.901Z,1.95
2017-12-21T09:02:37.907Z,2.34
2017-12-21T09:17:36.317Z,2.75
2017-12-21T09:32:35.159Z,3.11
2017-12-21T09:47:41.129Z,3.72
2017-12-21T10:02:36.833Z,4.22
2017-12-21T10:17:36.455Z,4.31
2017-12-21T10:32:34.354Z,4.06
2017-12-21T10:47:37.375Z,3.87
2017-12-21T11:02:34.303Z,3.73
2017-12-21T11:32:36.624Z,3.15
2017-12-21T11:47:34.488Z,2.79
2017-12-21T12:02:34.183Z,2.69
2017-12-21T12:17:33.912Z,2.50
2017-12-21T12:47:34.204Z,1.87
2017-12-21T13:02:33.889Z,1.80
2017-12-21T13:17:35.001Z,1.83
2017-12-21T13:32:34.993Z,1.85
2017-12-21T13:47:36.887Z,1.72
2017-12-21T14:02:35.425Z,1.52
2017-12-21T14:17:34.634Z,1.32
2017-12-21T14:32:34.383Z,1.18
2017-12-21T14:47:34.519Z,0.99
2017-12-21T15:02:37.467Z,0.72
2017-12-21T15:17:34.953Z,0.58
2017-12-21T15:32:36.322Z,0.54
2017-12-21T15:47:34.361Z,0.41
2017-12-21T16:02:34.410Z,0.23
2017-12-21T16:17:37.070Z,-0.02
2017-12-21T16:32:36.112Z,-0.06
2017-12-21T16:47:34.222Z,-0.05
2017-12-21T17:02:34.924Z,-0.07
2017-12-21T17:17:41.055Z,-0.07
2017-12-21T17:32:35.049Z,-0.11
2017-12-21T17:47:34.912Z,-0.12
2017-12-21T18:02:40.702Z,-0.05
2017-12-21T18:17:34.357Z,0.00
2017-12-21T18:32:36.285Z,0.00
2017-12-21T18:47:36.215Z,-0.04
2017-12-21T19:02:39.912Z,-0.05
2017-12-21T19:17:36.637Z,-0.05
2017-12-21T19:32:36.556Z,-0.12
2017-12-21T19:47:38.663Z,-0.12
